Pelagos — SZSW — position and weather

sailwx.info

Track history (hours):
 
Tides and Currents Weather Stations Pressure Air Temp Water Temp Dewpoint Dewpoint Depression Visibility Wind Speed Wind Dir Waves Ship Positions

Pelagos

Last reported at 2015-Jul-10 00:18 UTC. Time now 2015-Jul-29 17:58 UTC.
Position N 57°48' E 010°17'.
Warning: this ship's position is 19 days out of date.

Length 249 m; draft 14 m.

Type: Ship. MMSI: 240335000.

Date/timePositionNaut miles runAvg speedWind from/ knotsBaromVisibWave heightAir tempDewpointWater temp
2015-Jul-10 00:18N 57°48' E 010°17'5 7.0
2015-Jul-09 23:33N 57°49' E 010°27'8 7.7
2015-Jul-09 22:33N 57°49' E 010°41'8 7.3
2015-Jul-09 21:32N 57°41' E 010°42'2 1.7
2015-Jul-09 20:18N 57°40' E 010°40'0 0.0
2015-Jul-09 19:33N 57°40' E 010°40'0 0.0
2015-Jul-09 18:14N 57°40' E 010°40'0 0.0
2015-Jul-09 17:30N 57°40' E 010°40'0 0.0
2015-Jul-09 15:29N 57°40' E 010°40'0 0.0
2015-Jul-08 23:33N 57°40' E 010°40'0 0.0
2015-Jul-08 20:14N 57°40' E 010°40'0 0.0
2015-Jul-08 19:08N 57°40' E 010°40'0 0.0
2015-Jul-08 13:30N 57°40' E 010°40'5 5.2
2015-Jul-08 12:34N 57°44' E 010°46'8 8.3
2015-Jul-08 11:33N 57°41' E 011°00'8 8.3
2015-Jul-08 10:34N 57°35' E 011°11'1010.0
2015-Jul-08 09:34N 57°28' E 011°25'1111.2
2015-Jul-08 08:33N 57°18' E 011°32'1111.2
2015-Jul-08 07:33N 57°07' E 011°39'1111.1
2015-Jul-08 06:33N 56°57' E 011°46'1110.9
2015-Jul-08 05:33N 56°47' E 011°53'1110.7
2015-Jul-08 04:33N 56°36' E 011°50'76 9.3
2015-Jul-07 20:26N 55°26' E 010°57'910.6
2015-Jul-07 19:33N 55°18' E 011°03'9 8.8
2015-Jul-07 18:33N 55°09' E 010°60'1110.6
2015-Jul-07 17:33N 54°59' E 010°58'10 9.8
2015-Jul-07 16:31N 54°49' E 010°50'1010.2
2015-Jul-07 15:33N 54°40' E 010°50'1211.6
2015-Jul-07 14:33N 54°35' E 011°09'1212.0
2015-Jul-07 13:34N 54°31' E 011°28'1212.0
2015-Jul-07 12:33N 54°26' E 011°47'1211.9
2015-Jul-07 11:33N 54°26' E 012°08'7710.7
2015-Jul-07 04:25N 55°04' E 014°03'1011.5
2015-Jul-07 03:34N 55°12' E 014°14'1211.7
2015-Jul-07 02:33N 55°21' E 014°27'1111.2
2015-Jul-07 01:34N 55°28' E 014°42'1211.5
2015-Jul-07 00:33N 55°34' E 014°60'1111.3
2015-Jul-06 23:34N 55°38' E 015°18'1211.2
2015-Jul-06 22:28N 55°41' E 015°39'307 8.3
2015-Jul-05 09:33N 59°23' E 022°13'1211.8
2015-Jul-05 08:33N 59°30' E 022°31'2511.7
2015-Jul-05 06:23N 59°38' E 023°19'1011.8
2015-Jul-05 05:33N 59°41' E 023°38'1211.8
2015-Jul-05 04:33N 59°44' E 024°01'1211.9
2015-Jul-05 03:33N 59°47' E 024°23'1211.9
2015-Jul-05 02:32N 59°50' E 024°47'5311.9
2015-Jul-04 22:05N 60°01' E 026°30'611.3
2015-Jul-04 21:33N 60°01' E 026°42'  
2015-Jul-02 17:26N 60°10' E 027°51'7 7.6
2015-Jul-02 16:33N 60°08' E 027°39'9 8.7
2015-Jul-02 15:32N 60°04' E 027°23'9 8.7
2015-Jul-02 14:33N 59°59' E 027°09'8 7.9
2015-Jul-02 13:34N 59°59' E 026°53'8 8.3
2015-Jul-02 12:34N 59°59' E 026°36'9 8.8
2015-Jul-02 11:34N 59°57' E 026°19'9 8.6
2015-Jul-02 10:34N 59°54' E 026°03'9 8.5
2015-Jul-02 09:33N 59°52' E 025°47'9 8.9
2015-Jul-02 08:33N 59°50' E 025°29'9 9.3
2015-Jul-02 07:33N 59°48' E 025°11'9 9.3
2015-Jul-02 06:33N 59°46' E 024°53'9 9.1
2015-Jul-02 05:33N 59°45' E 024°35'9 9.0
2015-Jul-02 04:33N 59°43' E 024°18'9 9.0
2015-Jul-02 03:33N 59°40' E 024°01'9 9.1
2015-Jul-02 02:33N 59°37' E 023°44'9 9.3
2015-Jul-02 01:33N 59°34' E 023°27'9 9.4
2015-Jul-02 00:33N 59°31' E 023°09'9 9.3
2015-Jul-01 23:33N 59°28' E 022°52'10 9.2
2015-Jul-01 22:28N 59°24' E 022°33'11 9.2
2015-Jul-01 21:13N 59°17' E 022°16'6 9.0
2015-Jul-01 20:33N 59°13' E 022°07'153 9.0
2015-Jul-01 03:33N 57°13' E 019°05'12 8.9
2015-Jul-01 02:15N 57°04' E 018°53'126 9.1
2015-Jun-30 12:18N 55°46' E 015°53'16 9.0
2015-Jun-30 10:33N 55°39' E 015°28'9 9.0
2015-Jun-30 09:33N 55°34' E 015°14'9 8.9
2015-Jun-30 08:33N 55°30' E 015°01'9 9.1
2015-Jun-30 07:33N 55°26' E 014°46'19 9.4
2015-Jun-30 05:33N 55°13' E 014°23'10 9.6
2015-Jun-30 04:30N 55°10' E 014°06'9 9.8
2015-Jun-30 03:32N 55°11' E 013°50'14 9.8
2015-Jun-30 02:06N 55°12' E 013°25'510.1
2015-Jun-30 01:33N 55°13' E 013°16'1010.0
2015-Jun-30 00:33N 55°14' E 012°58'  
Track history (hours):
 
Tides and Currents Weather Stations Pressure Air Temp Water Temp Dewpoint Dewpoint Depression Visibility Wind Speed Wind Dir Waves Ship Positions

Pelagos

Last reported at 2015-Jul-10 00:18 UTC. Time now 2015-Jul-29 17:58 UTC.
Position N 57°48' E 010°17'.
Warning: this ship's position is 19 days out of date.

Length 249 m; draft 14 m.

Type: Ship. MMSI: 240335000.

Date/timePositionNaut miles runAvg speedWind from/ knotsBaromVisibWave heightAir tempDewpointWater temp
2015-Jul-10 00:18N 57°48' E 010°17'5 7.0
2015-Jul-09 23:33N 57°49' E 010°27'8 7.7
2015-Jul-09 22:33N 57°49' E 010°41'8 7.3
2015-Jul-09 21:32N 57°41' E 010°42'2 1.7
2015-Jul-09 20:18N 57°40' E 010°40'0 0.0
2015-Jul-09 19:33N 57°40' E 010°40'0 0.0
2015-Jul-09 18:14N 57°40' E 010°40'0 0.0
2015-Jul-09 17:30N 57°40' E 010°40'0 0.0
2015-Jul-09 15:29N 57°40' E 010°40'0 0.0
2015-Jul-08 23:33N 57°40' E 010°40'0 0.0
2015-Jul-08 20:14N 57°40' E 010°40'0 0.0
2015-Jul-08 19:08N 57°40' E 010°40'0 0.0
2015-Jul-08 13:30N 57°40' E 010°40'5 5.2
2015-Jul-08 12:34N 57°44' E 010°46'8 8.3
2015-Jul-08 11:33N 57°41' E 011°00'8 8.3
2015-Jul-08 10:34N 57°35' E 011°11'1010.0
2015-Jul-08 09:34N 57°28' E 011°25'1111.2
2015-Jul-08 08:33N 57°18' E 011°32'1111.2
2015-Jul-08 07:33N 57°07' E 011°39'1111.1
2015-Jul-08 06:33N 56°57' E 011°46'1110.9
2015-Jul-08 05:33N 56°47' E 011°53'1110.7
2015-Jul-08 04:33N 56°36' E 011°50'76 9.3
2015-Jul-07 20:26N 55°26' E 010°57'910.6
2015-Jul-07 19:33N 55°18' E 011°03'9 8.8
2015-Jul-07 18:33N 55°09' E 010°60'1110.6
2015-Jul-07 17:33N 54°59' E 010°58'10 9.8
2015-Jul-07 16:31N 54°49' E 010°50'1010.2
2015-Jul-07 15:33N 54°40' E 010°50'1211.6
2015-Jul-07 14:33N 54°35' E 011°09'1212.0
2015-Jul-07 13:34N 54°31' E 011°28'1212.0
2015-Jul-07 12:33N 54°26' E 011°47'1211.9
2015-Jul-07 11:33N 54°26' E 012°08'7710.7
2015-Jul-07 04:25N 55°04' E 014°03'1011.5
2015-Jul-07 03:34N 55°12' E 014°14'1211.7
2015-Jul-07 02:33N 55°21' E 014°27'1111.2
2015-Jul-07 01:34N 55°28' E 014°42'1211.5
2015-Jul-07 00:33N 55°34' E 014°60'1111.3
2015-Jul-06 23:34N 55°38' E 015°18'1211.2
2015-Jul-06 22:28N 55°41' E 015°39'307 8.3
2015-Jul-05 09:33N 59°23' E 022°13'1211.8
2015-Jul-05 08:33N 59°30' E 022°31'2511.7
2015-Jul-05 06:23N 59°38' E 023°19'1011.8
2015-Jul-05 05:33N 59°41' E 023°38'1211.8
2015-Jul-05 04:33N 59°44' E 024°01'1211.9
2015-Jul-05 03:33N 59°47' E 024°23'1211.9
2015-Jul-05 02:32N 59°50' E 024°47'5311.9
2015-Jul-04 22:05N 60°01' E 026°30'611.3
2015-Jul-04 21:33N 60°01' E 026°42'  
2015-Jul-02 17:26N 60°10' E 027°51'7 7.6
2015-Jul-02 16:33N 60°08' E 027°39'9 8.7
2015-Jul-02 15:32N 60°04' E 027°23'9 8.7
2015-Jul-02 14:33N 59°59' E 027°09'8 7.9
2015-Jul-02 13:34N 59°59' E 026°53'8 8.3
2015-Jul-02 12:34N 59°59' E 026°36'9 8.8
2015-Jul-02 11:34N 59°57' E 026°19'9 8.6
2015-Jul-02 10:34N 59°54' E 026°03'9 8.5
2015-Jul-02 09:33N 59°52' E 025°47'9 8.9
2015-Jul-02 08:33N 59°50' E 025°29'9 9.3
2015-Jul-02 07:33N 59°48' E 025°11'9 9.3
2015-Jul-02 06:33N 59°46' E 024°53'9 9.1
2015-Jul-02 05:33N 59°45' E 024°35'9 9.0
2015-Jul-02 04:33N 59°43' E 024°18'9 9.0
2015-Jul-02 03:33N 59°40' E 024°01'9 9.1
2015-Jul-02 02:33N 59°37' E 023°44'9 9.3
2015-Jul-02 01:33N 59°34' E 023°27'9 9.4
2015-Jul-02 00:33N 59°31' E 023°09'9 9.3
2015-Jul-01 23:33N 59°28' E 022°52'10 9.2
2015-Jul-01 22:28N 59°24' E 022°33'11 9.2
2015-Jul-01 21:13N 59°17' E 022°16'6 9.0
2015-Jul-01 20:33N 59°13' E 022°07'153 9.0
2015-Jul-01 03:33N 57°13' E 019°05'12 8.9
2015-Jul-01 02:15N 57°04' E 018°53'126 9.1
2015-Jun-30 12:18N 55°46' E 015°53'16 9.0
2015-Jun-30 10:33N 55°39' E 015°28'9 9.0
2015-Jun-30 09:33N 55°34' E 015°14'9 8.9
2015-Jun-30 08:33N 55°30' E 015°01'9 9.1
2015-Jun-30 07:33N 55°26' E 014°46'19 9.4
2015-Jun-30 05:33N 55°13' E 014°23'10 9.6
2015-Jun-30 04:30N 55°10' E 014°06'9 9.8
2015-Jun-30 03:32N 55°11' E 013°50'14 9.8
2015-Jun-30 02:06N 55°12' E 013°25'510.1
2015-Jun-30 01:33N 55°13' E 013°16'1010.0
2015-Jun-30 00:33N 55°14' E 012°58'  

Dump ship's entire track history